sensor_id;sensor_type;location;lat;lon;timestamp;noise_LAeq;noise_LA_min;noise_LA_max;noise_LA01;noise_LA95
74234;Laerm;62591;55.764;37.718;2023-02-28T00:01:35;38.90;35.07;45.07;;
74234;Laerm;62591;55.764;37.718;2023-02-28T00:04:05;39.67;35.32;47.80;;
74234;Laerm;62591;55.764;37.718;2023-02-28T00:06:37;39.66;35.13;49.94;;
74234;Laerm;62591;55.764;37.718;2023-02-28T00:09:07;43.29;35.15;53.40;;
74234;Laerm;62591;55.764;37.718;2023-02-28T00:11:36;39.04;34.72;44.60;;
74234;Laerm;62591;55.764;37.718;2023-02-28T00:14:07;39.59;35.46;48.76;;
74234;Laerm;62591;55.764;37.718;2023-02-28T00:16:36;39.05;35.22;54.51;;
74234;Laerm;62591;55.764;37.718;2023-02-28T00:19:04;38.32;34.67;43.86;;
74234;Laerm;62591;55.764;37.718;2023-02-28T00:21:33;40.46;34.17;57.16;;
74234;Laerm;62591;55.764;37.718;2023-02-28T00:24:02;38.23;34.56;42.83;;
74234;Laerm;62591;55.764;37.718;2023-02-28T00:26:32;39.96;34.96;48.45;;
74234;Laerm;62591;55.764;37.718;2023-02-28T00:29:01;38.61;35.01;46.81;;
74234;Laerm;62591;55.764;37.718;2023-02-28T00:31:31;39.72;34.97;49.31;;
74234;Laerm;62591;55.764;37.718;2023-02-28T00:34:01;39.09;34.66;48.30;;
74234;Laerm;62591;55.764;37.718;2023-02-28T00:36:31;38.73;35.18;44.81;;
74234;Laerm;62591;55.764;37.718;2023-02-28T00:38:59;39.58;34.89;48.35;;
74234;Laerm;62591;55.764;37.718;2023-02-28T00:41:32;39.21;35.26;45.35;;
74234;Laerm;62591;55.764;37.718;2023-02-28T00:44:00;39.58;34.69;60.50;;
74234;Laerm;62591;55.764;37.718;2023-02-28T00:46:32;39.31;34.91;49.90;;
74234;Laerm;62591;55.764;37.718;2023-02-28T00:49:01;44.08;34.84;56.19;;
74234;Laerm;62591;55.764;37.718;2023-02-28T00:51:29;48.16;35.03;64.12;;
74234;Laerm;62591;55.764;37.718;2023-02-28T00:53:58;40.77;35.91;61.40;;
74234;Laerm;62591;55.764;37.718;2023-02-28T00:56:26;38.78;35.17;43.18;;
74234;Laerm;62591;55.764;37.718;2023-02-28T00:58:56;39.55;34.67;45.82;;
74234;Laerm;62591;55.764;37.718;2023-02-28T01:01:25;42.75;35.83;58.30;;
74234;Laerm;62591;55.764;37.718;2023-02-28T01:03:54;39.32;35.29;47.12;;
74234;Laerm;62591;55.764;37.718;2023-02-28T01:06:23;39.97;36.01;44.84;;
74234;Laerm;62591;55.764;37.718;2023-02-28T01:08:52;39.62;35.23;44.61;;
74234;Laerm;62591;55.764;37.718;2023-02-28T01:11:22;41.13;36.92;49.00;;
74234;Laerm;62591;55.764;37.718;2023-02-28T01:13:54;40.90;35.97;49.63;;
74234;Laerm;62591;55.764;37.718;2023-02-28T01:16:24;40.23;35.91;44.75;;
74234;Laerm;62591;55.764;37.718;2023-02-28T01:18:53;39.56;35.46;44.71;;
74234;Laerm;62591;55.764;37.718;2023-02-28T01:21:22;39.62;34.88;49.97;;
74234;Laerm;62591;55.764;37.718;2023-02-28T01:23:51;40.26;35.64;50.62;;
74234;Laerm;62591;55.764;37.718;2023-02-28T01:26:21;41.68;35.79;52.16;;
74234;Laerm;62591;55.764;37.718;2023-02-28T01:28:51;41.28;36.77;47.38;;
74234;Laerm;62591;55.764;37.718;2023-02-28T01:31:20;41.92;37.72;62.08;;
74234;Laerm;62591;55.764;37.718;2023-02-28T01:33:50;40.37;35.98;45.55;;
74234;Laerm;62591;55.764;37.718;2023-02-28T01:36:21;41.30;36.01;49.30;;
74234;Laerm;62591;55.764;37.718;2023-02-28T01:38:50;40.12;36.64;44.93;;
74234;Laerm;62591;55.764;37.718;2023-02-28T01:41:21;40.75;36.79;47.53;;
74234;Laerm;62591;55.764;37.718;2023-02-28T01:43:57;41.13;36.72;56.22;;
74234;Laerm;62591;55.764;37.718;2023-02-28T01:46:26;40.85;36.80;51.17;;
74234;Laerm;62591;55.764;37.718;2023-02-28T01:49:00;44.15;37.26;59.60;;
74234;Laerm;62591;55.764;37.718;2023-02-28T01:51:36;44.22;35.76;55.67;;
74234;Laerm;62591;55.764;37.718;2023-02-28T01:54:09;41.00;36.33;46.16;;
74234;Laerm;62591;55.764;37.718;2023-02-28T01:56:44;41.77;37.26;49.13;;
74234;Laerm;62591;55.764;37.718;2023-02-28T01:59:19;44.71;37.14;57.62;;
74234;Laerm;62591;55.764;37.718;2023-02-28T02:01:50;42.86;36.49;57.24;;
74234;Laerm;62591;55.764;37.718;2023-02-28T02:04:21;42.67;37.77;50.18;;
74234;Laerm;62591;55.764;37.718;2023-02-28T02:06:52;41.45;36.78;53.92;;
74234;Laerm;62591;55.764;37.718;2023-02-28T02:09:20;42.79;37.51;53.46;;
74234;Laerm;62591;55.764;37.718;2023-02-28T02:11:54;44.77;37.86;54.14;;
74234;Laerm;62591;55.764;37.718;2023-02-28T02:14:43;42.49;37.84;47.73;;
74234;Laerm;62591;55.764;37.718;2023-02-28T02:17:24;41.49;37.96;46.76;;
74234;Laerm;62591;55.764;37.718;2023-02-28T02:20:31;43.68;38.00;53.00;;
74234;Laerm;62591;55.764;37.718;2023-02-28T02:23:21;42.00;37.47;50.99;;
74234;Laerm;62591;55.764;37.718;2023-02-28T02:25:54;42.81;36.76;51.54;;
74234;Laerm;62591;55.764;37.718;2023-02-28T02:28:56;42.72;37.73;52.43;;
74234;Laerm;62591;55.764;37.718;2023-02-28T02:34:58;44.92;37.88;57.09;;
74234;Laerm;62591;55.764;37.718;2023-02-28T02:37:37;42.91;37.88;56.11;;
74234;Laerm;62591;55.764;37.718;2023-02-28T02:40:12;42.28;38.34;49.52;;
74234;Laerm;62591;55.764;37.718;2023-02-28T02:42:45;43.77;38.77;50.55;;
74234;Laerm;62591;55.764;37.718;2023-02-28T02:45:19;44.87;38.73;55.21;;
74234;Laerm;62591;55.764;37.718;2023-02-28T02:47:51;43.22;37.83;51.54;;
74234;Laerm;62591;55.764;37.718;2023-02-28T02:50:26;42.76;38.86;48.05;;
74234;Laerm;62591;55.764;37.718;2023-02-28T02:53:01;45.48;39.08;57.66;;
74234;Laerm;62591;55.764;37.718;2023-02-28T02:55:34;44.14;39.76;51.84;;
74234;Laerm;62591;55.764;37.718;2023-02-28T02:58:06;45.66;39.31;55.35;;
74234;Laerm;62591;55.764;37.718;2023-02-28T03:00:39;43.94;39.14;61.58;;
74234;Laerm;62591;55.764;37.718;2023-02-28T03:03:11;44.07;39.81;57.93;;
74234;Laerm;62591;55.764;37.718;2023-02-28T03:05:46;45.41;40.05;55.40;;
74234;Laerm;62591;55.764;37.718;2023-02-28T03:08:16;44.82;40.28;50.05;;
74234;Laerm;62591;55.764;37.718;2023-02-28T03:10:47;46.17;40.40;54.15;;
74234;Laerm;62591;55.764;37.718;2023-02-28T03:13:42;45.37;40.22;53.84;;
74234;Laerm;62591;55.764;37.718;2023-02-28T03:16:40;46.31;40.61;56.64;;
74234;Laerm;62591;55.764;37.718;2023-02-28T03:19:26;45.54;40.61;58.55;;
74234;Laerm;62591;55.764;37.718;2023-02-28T03:22:23;48.79;40.14;66.37;;
74234;Laerm;62591;55.764;37.718;2023-02-28T03:24:56;47.34;40.93;58.59;;
74234;Laerm;62591;55.764;37.718;2023-02-28T03:27:36;45.36;39.55;58.48;;
74234;Laerm;62591;55.764;37.718;2023-02-28T03:30:10;45.99;41.20;50.19;;
74234;Laerm;62591;55.764;37.718;2023-02-28T03:32:49;47.86;41.17;72.58;;
74234;Laerm;62591;55.764;37.718;2023-02-28T03:35:22;47.07;42.03;55.88;;
74234;Laerm;62591;55.764;37.718;2023-02-28T03:37:56;47.04;41.56;57.76;;
74234;Laerm;62591;55.764;37.718;2023-02-28T03:40:30;47.13;41.68;55.38;;
74234;Laerm;62591;55.764;37.718;2023-02-28T03:43:03;45.03;40.53;52.85;;
74234;Laerm;62591;55.764;37.718;2023-02-28T03:45:36;46.36;40.89;62.21;;
74234;Laerm;62591;55.764;37.718;2023-02-28T03:48:09;45.72;41.38;53.85;;
74234;Laerm;62591;55.764;37.718;2023-02-28T03:50:43;47.17;41.45;54.94;;
74234;Laerm;62591;55.764;37.718;2023-02-28T03:53:18;46.31;41.18;59.99;;
74234;Laerm;62591;55.764;37.718;2023-02-28T03:55:49;47.17;41.85;53.85;;
74234;Laerm;62591;55.764;37.718;2023-02-28T03:58:24;47.03;43.01;56.95;;
74234;Laerm;62591;55.764;37.718;2023-02-28T04:00:59;47.94;42.43;55.55;;
74234;Laerm;62591;55.764;37.718;2023-02-28T04:03:37;46.53;42.35;59.45;;
74234;Laerm;62591;55.764;37.718;2023-02-28T04:06:08;48.82;42.90;63.30;;
74234;Laerm;62591;55.764;37.718;2023-02-28T04:08:43;49.92;45.35;63.36;;
74234;Laerm;62591;55.764;37.718;2023-02-28T04:11:18;49.24;44.99;59.79;;
74234;Laerm;62591;55.764;37.718;2023-02-28T04:13:48;50.93;44.88;64.55;;
74234;Laerm;62591;55.764;37.718;2023-02-28T04:16:17;48.55;44.32;55.44;;
74234;Laerm;62591;55.764;37.718;2023-02-28T04:19:01;48.83;43.91;64.24;;
74234;Laerm;62591;55.764;37.718;2023-02-28T04:21:33;49.49;43.77;62.94;;
74234;Laerm;62591;55.764;37.718;2023-02-28T04:24:05;48.99;42.96;62.11;;
74234;Laerm;62591;55.764;37.718;2023-02-28T04:26:35;49.75;43.90;62.51;;
74234;Laerm;62591;55.764;37.718;2023-02-28T04:29:05;49.61;44.27;61.58;;
74234;Laerm;62591;55.764;37.718;2023-02-28T04:31:34;50.34;44.82;64.58;;
74234;Laerm;62591;55.764;37.718;2023-02-28T04:34:02;49.94;44.34;60.71;;
74234;Laerm;62591;55.764;37.718;2023-02-28T04:36:31;48.98;44.70;58.06;;
74234;Laerm;62591;55.764;37.718;2023-02-28T04:39:00;51.38;43.96;69.98;;
74234;Laerm;62591;55.764;37.718;2023-02-28T04:41:29;51.18;45.08;68.10;;
74234;Laerm;62591;55.764;37.718;2023-02-28T04:43:59;48.80;44.10;63.19;;
74234;Laerm;62591;55.764;37.718;2023-02-28T04:46:27;50.75;46.15;67.19;;
74234;Laerm;62591;55.764;37.718;2023-02-28T04:48:59;49.89;44.05;67.18;;
74234;Laerm;62591;55.764;37.718;2023-02-28T04:51:28;49.69;43.62;62.68;;
74234;Laerm;62591;55.764;37.718;2023-02-28T04:53:57;47.61;43.40;61.57;;
74234;Laerm;62591;55.764;37.718;2023-02-28T04:56:26;48.50;43.51;60.42;;
74234;Laerm;62591;55.764;37.718;2023-02-28T04:58:57;50.42;45.52;63.54;;
74234;Laerm;62591;55.764;37.718;2023-02-28T05:01:27;49.53;45.38;57.78;;
74234;Laerm;62591;55.764;37.718;2023-02-28T05:03:59;50.64;46.26;66.36;;
74234;Laerm;62591;55.764;37.718;2023-02-28T05:06:31;50.38;46.33;64.23;;
74234;Laerm;62591;55.764;37.718;2023-02-28T05:09:00;52.01;45.18;70.06;;
74234;Laerm;62591;55.764;37.718;2023-02-28T05:11:31;51.00;46.82;65.45;;
74234;Laerm;62591;55.764;37.718;2023-02-28T05:14:04;50.77;45.49;64.44;;
74234;Laerm;62591;55.764;37.718;2023-02-28T05:16:33;49.37;45.30;58.75;;
74234;Laerm;62591;55.764;37.718;2023-02-28T05:19:01;49.14;43.76;64.82;;
74234;Laerm;62591;55.764;37.718;2023-02-28T05:21:33;48.33;43.63;61.59;;
74234;Laerm;62591;55.764;37.718;2023-02-28T05:24:03;49.99;44.43;62.04;;
74234;Laerm;62591;55.764;37.718;2023-02-28T05:26:35;50.56;45.86;64.90;;
74234;Laerm;62591;55.764;37.718;2023-02-28T05:29:05;50.91;45.49;66.87;;
74234;Laerm;62591;55.764;37.718;2023-02-28T05:31:34;48.57;44.45;62.20;;
74234;Laerm;62591;55.764;37.718;2023-02-28T05:34:03;49.14;45.58;59.25;;
74234;Laerm;62591;55.764;37.718;2023-02-28T05:36:32;49.56;44.57;61.72;;
74234;Laerm;62591;55.764;37.718;2023-02-28T05:39:01;49.44;45.05;61.00;;
74234;Laerm;62591;55.764;37.718;2023-02-28T05:41:30;49.49;45.68;64.05;;
74234;Laerm;62591;55.764;37.718;2023-02-28T05:43:58;48.39;44.02;61.55;;
74234;Laerm;62591;55.764;37.718;2023-02-28T05:46:29;48.50;42.35;58.50;;
74234;Laerm;62591;55.764;37.718;2023-02-28T05:48:57;49.18;44.32;62.66;;
74234;Laerm;62591;55.764;37.718;2023-02-28T05:51:27;49.82;45.19;63.74;;
74234;Laerm;62591;55.764;37.718;2023-02-28T05:53:59;49.10;44.45;57.03;;
74234;Laerm;62591;55.764;37.718;2023-02-28T05:56:28;49.78;44.67;63.85;;
74234;Laerm;62591;55.764;37.718;2023-02-28T05:58:57;49.04;44.00;62.01;;
74234;Laerm;62591;55.764;37.718;2023-02-28T06:01:33;50.15;44.80;61.15;;
74234;Laerm;62591;55.764;37.718;2023-02-28T06:04:05;48.73;44.10;64.70;;
74234;Laerm;62591;55.764;37.718;2023-02-28T06:06:33;50.93;46.09;69.38;;
74234;Laerm;62591;55.764;37.718;2023-02-28T06:09:03;49.63;44.50;65.21;;
74234;Laerm;62591;55.764;37.718;2023-02-28T06:11:32;49.40;43.84;63.83;;
74234;Laerm;62591;55.764;37.718;2023-02-28T06:14:01;50.59;42.74;64.05;;
74234;Laerm;62591;55.764;37.718;2023-02-28T06:16:34;48.41;44.72;54.48;;
74234;Laerm;62591;55.764;37.718;2023-02-28T06:19:05;48.40;44.29;59.27;;
74234;Laerm;62591;55.764;37.718;2023-02-28T06:21:34;49.27;44.79;59.76;;
74234;Laerm;62591;55.764;37.718;2023-02-28T06:24:03;53.43;45.32;67.82;;
74234;Laerm;62591;55.764;37.718;2023-02-28T06:26:32;51.69;46.44;66.64;;
74234;Laerm;62591;55.764;37.718;2023-02-28T06:29:00;49.49;45.09;61.23;;
74234;Laerm;62591;55.764;37.718;2023-02-28T06:31:31;49.19;42.49;63.31;;
74234;Laerm;62591;55.764;37.718;2023-02-28T06:34:00;48.98;44.34;61.30;;
74234;Laerm;62591;55.764;37.718;2023-02-28T06:36:29;49.52;43.68;64.04;;
74234;Laerm;62591;55.764;37.718;2023-02-28T06:38:57;48.78;43.90;56.35;;
74234;Laerm;62591;55.764;37.718;2023-02-28T06:41:26;48.45;43.68;59.20;;
74234;Laerm;62591;55.764;37.718;2023-02-28T06:44:00;50.62;44.23;62.96;;
74234;Laerm;62591;55.764;37.718;2023-02-28T06:46:29;49.32;44.84;63.57;;
74234;Laerm;62591;55.764;37.718;2023-02-28T06:48:59;49.39;44.87;61.42;;
74234;Laerm;62591;55.764;37.718;2023-02-28T06:51:27;49.90;44.04;67.15;;
74234;Laerm;62591;55.764;37.718;2023-02-28T06:53:56;50.30;45.00;69.24;;
74234;Laerm;62591;55.764;37.718;2023-02-28T06:56:25;48.95;45.00;59.99;;
74234;Laerm;62591;55.764;37.718;2023-02-28T06:58:53;49.35;44.90;59.68;;
74234;Laerm;62591;55.764;37.718;2023-02-28T07:01:23;49.42;43.84;66.53;;
74234;Laerm;62591;55.764;37.718;2023-02-28T07:03:51;50.28;43.81;64.98;;
74234;Laerm;62591;55.764;37.718;2023-02-28T07:06:22;51.49;43.92;67.01;;
74234;Laerm;62591;55.764;37.718;2023-02-28T07:08:51;51.64;44.69;67.01;;
74234;Laerm;62591;55.764;37.718;2023-02-28T07:11:20;49.95;44.40;68.37;;
74234;Laerm;62591;55.764;37.718;2023-02-28T07:13:49;51.62;43.64;69.78;;
74234;Laerm;62591;55.764;37.718;2023-02-28T07:16:18;49.17;44.54;55.92;;
74234;Laerm;62591;55.764;37.718;2023-02-28T07:18:47;54.06;46.05;70.43;;
74234;Laerm;62591;55.764;37.718;2023-02-28T07:21:16;50.04;45.18;67.31;;
74234;Laerm;62591;55.764;37.718;2023-02-28T07:23:46;48.94;43.59;63.17;;
74234;Laerm;62591;55.764;37.718;2023-02-28T07:26:17;48.38;44.03;69.10;;
74234;Laerm;62591;55.764;37.718;2023-02-28T07:28:47;49.38;43.47;56.66;;
74234;Laerm;62591;55.764;37.718;2023-02-28T07:31:16;49.04;45.37;59.57;;
74234;Laerm;62591;55.764;37.718;2023-02-28T07:33:45;50.17;45.73;60.79;;
74234;Laerm;62591;55.764;37.718;2023-02-28T07:36:16;48.73;44.96;68.48;;
74234;Laerm;62591;55.764;37.718;2023-02-28T07:38:48;48.34;44.42;53.56;;
74234;Laerm;62591;55.764;37.718;2023-02-28T07:41:20;50.47;45.07;67.62;;
74234;Laerm;62591;55.764;37.718;2023-02-28T07:43:52;49.10;44.88;56.49;;
74234;Laerm;62591;55.764;37.718;2023-02-28T07:46:21;49.67;44.89;64.94;;
74234;Laerm;62591;55.764;37.718;2023-02-28T07:48:50;48.85;44.57;63.20;;
74234;Laerm;62591;55.764;37.718;2023-02-28T07:51:18;50.29;44.62;61.71;;
74234;Laerm;62591;55.764;37.718;2023-02-28T07:53:49;53.65;47.51;61.26;;
74234;Laerm;62591;55.764;37.718;2023-02-28T07:56:17;53.97;47.02;64.40;;
74234;Laerm;62591;55.764;37.718;2023-02-28T07:58:46;51.63;47.03;60.12;;
74234;Laerm;62591;55.764;37.718;2023-02-28T08:01:14;50.73;46.14;59.93;;
74234;Laerm;62591;55.764;37.718;2023-02-28T08:03:44;49.85;46.26;55.82;;
74234;Laerm;62591;55.764;37.718;2023-02-28T08:06:16;50.66;46.35;69.62;;
74234;Laerm;62591;55.764;37.718;2023-02-28T08:08:45;50.55;44.01;60.65;;
74234;Laerm;62591;55.764;37.718;2023-02-28T08:11:17;49.72;44.64;65.90;;
74234;Laerm;62591;55.764;37.718;2023-02-28T08:13:45;51.67;44.68;70.08;;
74234;Laerm;62591;55.764;37.718;2023-02-28T08:16:14;49.10;44.57;58.97;;
74234;Laerm;62591;55.764;37.718;2023-02-28T08:18:48;49.36;45.04;59.63;;
74234;Laerm;62591;55.764;37.718;2023-02-28T08:21:18;49.52;44.83;56.55;;
74234;Laerm;62591;55.764;37.718;2023-02-28T08:23:47;50.49;45.52;66.82;;
74234;Laerm;62591;55.764;37.718;2023-02-28T08:26:18;50.76;46.25;64.26;;
74234;Laerm;62591;55.764;37.718;2023-02-28T08:28:46;48.63;44.50;61.57;;
74234;Laerm;62591;55.764;37.718;2023-02-28T08:31:16;49.42;45.14;61.80;;
74234;Laerm;62591;55.764;37.718;2023-02-28T08:33:54;49.35;44.22;59.30;;
74234;Laerm;62591;55.764;37.718;2023-02-28T08:36:27;51.88;44.66;64.15;;
74234;Laerm;62591;55.764;37.718;2023-02-28T08:38:57;49.81;44.50;65.17;;
74234;Laerm;62591;55.764;37.718;2023-02-28T08:41:27;49.77;44.78;60.68;;
74234;Laerm;62591;55.764;37.718;2023-02-28T08:43:56;48.30;42.75;63.03;;
74234;Laerm;62591;55.764;37.718;2023-02-28T08:46:25;48.48;43.12;59.44;;
74234;Laerm;62591;55.764;37.718;2023-02-28T08:48:56;48.59;43.84;63.04;;
74234;Laerm;62591;55.764;37.718;2023-02-28T08:51:28;48.37;42.66;65.22;;
74234;Laerm;62591;55.764;37.718;2023-02-28T08:53:59;48.42;42.84;58.21;;
74234;Laerm;62591;55.764;37.718;2023-02-28T08:56:29;49.13;44.26;65.56;;
74234;Laerm;62591;55.764;37.718;2023-02-28T08:58:58;49.28;44.24;64.52;;
74234;Laerm;62591;55.764;37.718;2023-02-28T09:01:28;48.88;44.18;68.39;;
74234;Laerm;62591;55.764;37.718;2023-02-28T09:03:57;48.46;43.25;62.41;;
74234;Laerm;62591;55.764;37.718;2023-02-28T09:06:26;50.27;44.11;66.54;;
74234;Laerm;62591;55.764;37.718;2023-02-28T09:08:57;49.32;42.84;63.92;;
74234;Laerm;62591;55.764;37.718;2023-02-28T09:11:29;47.70;43.62;54.63;;
74234;Laerm;62591;55.764;37.718;2023-02-28T09:13:58;48.24;43.11;56.51;;
74234;Laerm;62591;55.764;37.718;2023-02-28T09:16:27;49.32;44.46;64.23;;
74234;Laerm;62591;55.764;37.718;2023-02-28T09:18:56;49.77;44.07;60.79;;
74234;Laerm;62591;55.764;37.718;2023-02-28T09:21:26;48.90;42.89;61.66;;
74234;Laerm;62591;55.764;37.718;2023-02-28T09:23:55;50.05;43.49;60.85;;
74234;Laerm;62591;55.764;37.718;2023-02-28T09:26:25;49.52;45.09;65.67;;
74234;Laerm;62591;55.764;37.718;2023-02-28T09:29:10;51.04;44.52;63.35;;
74234;Laerm;62591;55.764;37.718;2023-02-28T09:31:39;48.40;43.92;65.17;;
74234;Laerm;62591;55.764;37.718;2023-02-28T09:34:09;47.97;43.00;57.25;;
74234;Laerm;62591;55.764;37.718;2023-02-28T09:36:38;50.92;44.32;69.94;;
74234;Laerm;62591;55.764;37.718;2023-02-28T09:39:12;49.54;44.37;59.37;;
74234;Laerm;62591;55.764;37.718;2023-02-28T09:41:44;49.79;43.10;69.88;;
74234;Laerm;62591;55.764;37.718;2023-02-28T09:44:24;49.21;44.37;62.56;;
74234;Laerm;62591;55.764;37.718;2023-02-28T09:46:58;51.00;44.72;72.15;;
74234;Laerm;62591;55.764;37.718;2023-02-28T09:49:34;51.15;44.55;63.34;;
74234;Laerm;62591;55.764;37.718;2023-02-28T09:52:10;48.67;44.37;59.55;;
74234;Laerm;62591;55.764;37.718;2023-02-28T09:54:40;49.35;44.71;62.88;;
74234;Laerm;62591;55.764;37.718;2023-02-28T09:57:15;48.86;44.28;58.05;;
74234;Laerm;62591;55.764;37.718;2023-02-28T09:59:57;49.23;44.05;57.18;;
74234;Laerm;62591;55.764;37.718;2023-02-28T10:02:54;48.11;42.98;62.35;;
74234;Laerm;62591;55.764;37.718;2023-02-28T10:05:28;50.01;43.25;65.33;;
74234;Laerm;62591;55.764;37.718;2023-02-28T10:08:05;47.24;43.04;61.71;;
74234;Laerm;62591;55.764;37.718;2023-02-28T10:10:39;48.30;42.74;59.86;;
74234;Laerm;62591;55.764;37.718;2023-02-28T10:13:17;49.73;43.69;62.26;;
74234;Laerm;62591;55.764;37.718;2023-02-28T10:15:55;48.85;43.59;61.28;;
74234;Laerm;62591;55.764;37.718;2023-02-28T10:18:28;49.10;42.67;60.87;;
74234;Laerm;62591;55.764;37.718;2023-02-28T10:20:58;49.50;44.48;65.48;;
74234;Laerm;62591;55.764;37.718;2023-02-28T10:23:31;47.38;43.14;57.92;;
74234;Laerm;62591;55.764;37.718;2023-02-28T10:26:10;48.22;42.96;60.53;;
74234;Laerm;62591;55.764;37.718;2023-02-28T10:28:40;48.55;42.24;59.69;;
74234;Laerm;62591;55.764;37.718;2023-02-28T10:31:12;47.55;42.84;55.21;;
74234;Laerm;62591;55.764;37.718;2023-02-28T10:33:43;48.09;43.69;61.92;;
74234;Laerm;62591;55.764;37.718;2023-02-28T10:36:15;50.55;44.50;63.84;;
74234;Laerm;62591;55.764;37.718;2023-02-28T10:38:45;49.62;44.00;60.75;;
74234;Laerm;62591;55.764;37.718;2023-02-28T10:41:27;51.51;43.90;62.21;;
74234;Laerm;62591;55.764;37.718;2023-02-28T10:44:20;48.18;42.55;63.85;;
74234;Laerm;62591;55.764;37.718;2023-02-28T10:46:51;50.14;43.75;62.58;;
74234;Laerm;62591;55.764;37.718;2023-02-28T10:49:22;48.36;44.10;59.12;;
74234;Laerm;62591;55.764;37.718;2023-02-28T10:51:56;47.56;42.36;58.01;;
74234;Laerm;62591;55.764;37.718;2023-02-28T10:54:29;48.66;42.87;57.33;;
74234;Laerm;62591;55.764;37.718;2023-02-28T10:57:15;48.47;44.03;66.50;;
74234;Laerm;62591;55.764;37.718;2023-02-28T10:59:45;50.26;44.18;62.74;;
74234;Laerm;62591;55.764;37.718;2023-02-28T11:02:33;49.68;44.07;68.62;;
74234;Laerm;62591;55.764;37.718;2023-02-28T11:05:04;49.17;44.09;65.75;;
74234;Laerm;62591;55.764;37.718;2023-02-28T11:07:52;49.49;44.05;63.03;;
74234;Laerm;62591;55.764;37.718;2023-02-28T11:10:25;48.16;43.03;63.60;;
74234;Laerm;62591;55.764;37.718;2023-02-28T11:12:56;48.66;44.28;58.71;;
74234;Laerm;62591;55.764;37.718;2023-02-28T11:15:29;50.43;43.18;61.36;;
74234;Laerm;62591;55.764;37.718;2023-02-28T11:18:00;49.81;43.26;63.86;;
74234;Laerm;62591;55.764;37.718;2023-02-28T11:20:32;49.23;43.68;60.99;;
74234;Laerm;62591;55.764;37.718;2023-02-28T11:23:03;49.15;43.32;64.48;;
74234;Laerm;62591;55.764;37.718;2023-02-28T11:25:34;50.07;42.56;68.14;;
74234;Laerm;62591;55.764;37.718;2023-02-28T11:28:06;49.29;44.36;59.54;;
74234;Laerm;62591;55.764;37.718;2023-02-28T11:30:36;48.44;43.90;60.89;;
74234;Laerm;62591;55.764;37.718;2023-02-28T11:33:27;51.70;46.84;65.86;;
74234;Laerm;62591;55.764;37.718;2023-02-28T11:35:59;51.71;44.41;70.11;;
74234;Laerm;62591;55.764;37.718;2023-02-28T11:38:37;50.36;45.29;60.31;;
74234;Laerm;62591;55.764;37.718;2023-02-28T11:41:20;49.19;44.45;61.33;;
74234;Laerm;62591;55.764;37.718;2023-02-28T11:43:59;50.34;45.06;62.75;;
74234;Laerm;62591;55.764;37.718;2023-02-28T11:46:37;52.27;47.35;69.25;;
74234;Laerm;62591;55.764;37.718;2023-02-28T11:49:22;52.54;46.84;72.03;;
74234;Laerm;62591;55.764;37.718;2023-02-28T11:51:58;51.37;44.69;71.75;;
74234;Laerm;62591;55.764;37.718;2023-02-28T11:54:48;50.39;45.83;60.96;;
74234;Laerm;62591;55.764;37.718;2023-02-28T11:57:31;49.15;44.12;65.30;;
74234;Laerm;62591;55.764;37.718;2023-02-28T12:00:07;48.85;43.93;67.52;;
74234;Laerm;62591;55.764;37.718;2023-02-28T12:02:55;49.62;44.54;60.32;;
74234;Laerm;62591;55.764;37.718;2023-02-28T12:05:33;50.61;45.77;68.63;;
74234;Laerm;62591;55.764;37.718;2023-02-28T12:08:11;51.22;46.03;65.05;;
74234;Laerm;62591;55.764;37.718;2023-02-28T12:10:53;50.94;47.11;62.25;;
74234;Laerm;62591;55.764;37.718;2023-02-28T12:13:28;53.13;47.32;65.31;;
74234;Laerm;62591;55.764;37.718;2023-02-28T12:19:04;51.04;47.37;69.42;;
74234;Laerm;62591;55.764;37.718;2023-02-28T12:21:48;51.29;47.69;62.85;;
74234;Laerm;62591;55.764;37.718;2023-02-28T12:24:35;51.54;47.93;70.29;;
74234;Laerm;62591;55.764;37.718;2023-02-28T12:27:07;52.48;47.22;68.39;;
74234;Laerm;62591;55.764;37.718;2023-02-28T12:29:44;51.35;47.95;64.03;;
74234;Laerm;62591;55.764;37.718;2023-02-28T12:32:18;51.54;47.63;62.21;;
74234;Laerm;62591;55.764;37.718;2023-02-28T12:34:51;51.62;45.70;62.24;;
74234;Laerm;62591;55.764;37.718;2023-02-28T12:37:25;50.11;44.63;64.25;;
74234;Laerm;62591;55.764;37.718;2023-02-28T12:40:01;48.56;43.93;54.06;;
74234;Laerm;62591;55.764;37.718;2023-02-28T12:42:36;48.91;44.65;60.13;;
74234;Laerm;62591;55.764;37.718;2023-02-28T12:45:10;50.56;45.83;60.50;;
74234;Laerm;62591;55.764;37.718;2023-02-28T12:47:44;50.47;44.89;56.33;;
74234;Laerm;62591;55.764;37.718;2023-02-28T12:50:16;50.44;45.81;62.26;;
74234;Laerm;62591;55.764;37.718;2023-02-28T12:52:54;48.76;43.77;55.45;;
74234;Laerm;62591;55.764;37.718;2023-02-28T12:55:32;50.12;45.10;65.77;;
74234;Laerm;62591;55.764;37.718;2023-02-28T12:58:10;50.51;44.92;63.64;;
74234;Laerm;62591;55.764;37.718;2023-02-28T13:01:02;50.63;44.80;66.09;;
74234;Laerm;62591;55.764;37.718;2023-02-28T13:06:29;47.94;42.92;54.76;;
74234;Laerm;62591;55.764;37.718;2023-02-28T13:09:12;49.00;44.12;55.04;;
74234;Laerm;62591;55.764;37.718;2023-02-28T13:11:44;48.85;44.21;60.30;;
74234;Laerm;62591;55.764;37.718;2023-02-28T13:14:25;50.71;45.39;61.00;;
74234;Laerm;62591;55.764;37.718;2023-02-28T13:17:01;51.09;44.67;61.85;;
74234;Laerm;62591;55.764;37.718;2023-02-28T13:19:32;49.63;44.08;64.28;;
74234;Laerm;62591;55.764;37.718;2023-02-28T13:22:03;48.85;43.30;71.73;;
74234;Laerm;62591;55.764;37.718;2023-02-28T13:24:43;48.93;44.29;61.03;;
74234;Laerm;62591;55.764;37.718;2023-02-28T13:27:32;48.99;43.89;64.30;;
74234;Laerm;62591;55.764;37.718;2023-02-28T13:30:02;47.79;43.47;53.59;;
74234;Laerm;62591;55.764;37.718;2023-02-28T13:33:20;48.84;43.26;65.70;;
74234;Laerm;62591;55.764;37.718;2023-02-28T13:36:07;48.62;42.42;61.03;;
74234;Laerm;62591;55.764;37.718;2023-02-28T13:38:41;48.69;44.12;55.87;;
74234;Laerm;62591;55.764;37.718;2023-02-28T13:41:45;47.66;43.87;55.55;;
74234;Laerm;62591;55.764;37.718;2023-02-28T13:44:16;48.62;43.06;57.59;;
74234;Laerm;62591;55.764;37.718;2023-02-28T13:49:52;49.59;44.00;65.67;;
74234;Laerm;62591;55.764;37.718;2023-02-28T13:52:24;48.45;43.81;57.71;;
74234;Laerm;62591;55.764;37.718;2023-02-28T13:55:20;49.10;44.99;62.61;;
74234;Laerm;62591;55.764;37.718;2023-02-28T13:58:09;49.81;45.16;60.94;;
74234;Laerm;62591;55.764;37.718;2023-02-28T14:00:52;50.15;43.88;66.09;;
74234;Laerm;62591;55.764;37.718;2023-02-28T14:03:41;51.06;43.68;69.71;;
74234;Laerm;62591;55.764;37.718;2023-02-28T14:06:22;49.67;45.61;66.51;;
74234;Laerm;62591;55.764;37.718;2023-02-28T14:08:55;52.71;44.91;64.35;;
74234;Laerm;62591;55.764;37.718;2023-02-28T14:11:31;49.33;44.89;60.06;;
74234;Laerm;62591;55.764;37.718;2023-02-28T14:14:03;49.92;43.54;62.44;;
74234;Laerm;62591;55.764;37.718;2023-02-28T14:16:39;49.29;44.88;59.67;;
74234;Laerm;62591;55.764;37.718;2023-02-28T14:19:12;53.52;45.67;79.01;;